createdAt,value
2019-01-30T00:02:30.753Z,5.80
2019-01-30T00:05:19.897Z,7.03
2019-01-30T00:08:09.218Z,3.95
2019-01-30T00:10:58.354Z,3.93
2019-01-30T00:13:47.392Z,5.20
2019-01-30T00:16:36.381Z,4.27
2019-01-30T00:19:25.370Z,4.20
2019-01-30T00:22:14.459Z,5.60
2019-01-30T00:25:04.110Z,4.10
2019-01-30T00:27:53.452Z,4.43
2019-01-30T00:30:42.477Z,3.90
2019-01-30T00:33:24.324Z,6.50
2019-01-30T00:36:06.487Z,5.30
2019-01-30T00:38:48.593Z,3.63
2019-01-30T00:41:30.099Z,4.47
2019-01-30T00:44:12.609Z,4.00
2019-01-30T00:46:54.395Z,4.70
2019-01-30T00:49:36.315Z,4.43
2019-01-30T00:52:17.869Z,5.83
2019-01-30T00:55:00.298Z,7.77
2019-01-30T00:57:42.463Z,4.70
2019-01-30T01:00:24.730Z,3.73
2019-01-30T01:03:06.670Z,3.50
2019-01-30T01:05:49.118Z,6.60
2019-01-30T01:08:31.550Z,5.33
2019-01-30T01:11:13.583Z,4.93
2019-01-30T01:13:55.735Z,3.00
2019-01-30T01:16:37.181Z,6.50
2019-01-30T01:19:18.733Z,4.57
2019-01-30T01:22:00.190Z,6.53
2019-01-30T01:24:42.356Z,4.43
2019-01-30T01:27:24.266Z,4.77
2019-01-30T01:30:06.222Z,5.20
2019-01-30T01:32:48.272Z,5.13
2019-01-30T01:35:30.597Z,4.03
2019-01-30T01:38:12.609Z,5.07
2019-01-30T01:40:54.730Z,6.40
2019-01-30T01:43:36.644Z,4.50
2019-01-30T01:46:18.163Z,4.23
2019-01-30T01:49:01.022Z,5.50
2019-01-30T01:51:42.995Z,4.50
2019-01-30T01:54:25.595Z,6.60
2019-01-30T01:57:07.338Z,4.03
2019-01-30T01:59:49.498Z,5.00
2019-01-30T02:02:31.682Z,5.47
2019-01-30T02:05:13.946Z,6.87
2019-01-30T02:07:56.115Z,4.67
2019-01-30T02:10:38.146Z,4.33
2019-01-30T02:13:20.619Z,4.43
2019-01-30T02:16:03.097Z,4.83
2019-01-30T02:18:46.107Z,5.87
2019-01-30T02:21:28.275Z,5.13
2019-01-30T02:24:10.617Z,5.43
2019-01-30T02:26:52.650Z,3.98
2019-01-30T02:29:35.093Z,5.33
2019-01-30T02:32:16.683Z,3.63
2019-01-30T02:34:58.696Z,5.60
2019-01-30T02:37:28.485Z,3.30
2019-01-30T02:40:18.135Z,4.93
2019-01-30T02:43:07.171Z,5.70
2019-01-30T02:45:56.771Z,4.35
2019-01-30T02:48:45.750Z,7.77
2019-01-30T02:51:34.784Z,4.67
2019-01-30T02:54:23.809Z,4.50
2019-01-30T02:57:12.787Z,4.00
2019-01-30T03:00:01.783Z,3.50
2019-01-30T03:02:50.738Z,4.97
2019-01-30T03:05:39.728Z,5.17
2019-01-30T03:08:28.749Z,5.80
2019-01-30T03:11:17.734Z,3.60
2019-01-30T03:14:06.757Z,4.10
2019-01-30T03:16:55.846Z,3.97
2019-01-30T03:19:44.949Z,5.70
2019-01-30T03:22:34.008Z,2.87
2019-01-30T03:25:23.921Z,3.37
2019-01-30T03:28:12.878Z,3.17
2019-01-30T03:31:17.272Z,3.20
2019-01-30T03:34:04.653Z,3.17
2019-01-30T03:36:46.684Z,3.73
2019-01-30T03:39:28.809Z,3.47
2019-01-30T03:42:10.876Z,5.30
2019-01-30T03:44:52.435Z,4.43
2019-01-30T03:47:34.886Z,4.23
2019-01-30T03:50:16.808Z,2.57
2019-01-30T03:52:59.022Z,3.97
2019-01-30T03:55:40.575Z,5.63
2019-01-30T03:58:22.616Z,4.90
2019-01-30T04:01:05.066Z,3.80
2019-01-30T04:03:47.267Z,4.57
2019-01-30T04:06:28.807Z,4.90
2019-01-30T04:09:10.855Z,3.67
2019-01-30T04:11:53.084Z,6.60
2019-01-30T04:14:35.121Z,4.30
2019-01-30T04:17:18.030Z,4.13
2019-01-30T04:19:59.615Z,4.23
2019-01-30T04:22:41.298Z,3.63
2019-01-30T04:25:22.902Z,4.33
2019-01-30T04:28:04.707Z,3.37
2019-01-30T04:30:46.479Z,4.60
2019-01-30T04:33:29.207Z,4.37
2019-01-30T04:36:10.833Z,3.80
2019-01-30T04:38:53.511Z,3.92
2019-01-30T04:41:35.288Z,6.27
2019-01-30T04:44:17.034Z,7.20
2019-01-30T04:46:59.342Z,3.90
2019-01-30T04:49:41.898Z,3.97
2019-01-30T04:52:24.291Z,4.10
2019-01-30T04:55:06.397Z,3.83
2019-01-30T04:57:49.173Z,3.17
2019-01-30T05:00:31.377Z,4.07
2019-01-30T05:03:13.789Z,3.03
2019-01-30T05:05:55.439Z,3.20
2019-01-30T05:08:37.909Z,3.70
2019-01-30T05:11:20.217Z,4.00
2019-01-30T05:14:02.103Z,3.13
2019-01-30T05:16:44.187Z,5.30
2019-01-30T05:19:25.626Z,2.67
2019-01-30T05:22:07.926Z,2.77
2019-01-30T05:24:49.683Z,3.47
2019-01-30T05:27:32.152Z,4.73
2019-01-30T05:30:14.183Z,3.87
2019-01-30T05:32:55.845Z,4.60
2019-01-30T05:35:38.326Z,4.50
2019-01-30T05:38:20.001Z,4.77
2019-01-30T05:41:02.121Z,2.97
2019-01-30T05:43:44.287Z,3.30
2019-01-30T05:46:26.502Z,3.60
2019-01-30T05:49:09.131Z,3.20
2019-01-30T05:51:51.468Z,5.17
2019-01-30T05:54:33.539Z,3.23
2019-01-30T05:57:03.346Z,3.63
2019-01-30T05:59:53.096Z,4.08
2019-01-30T06:02:42.170Z,2.93
2019-01-30T06:05:31.136Z,4.47
2019-01-30T06:08:20.181Z,3.47
2019-01-30T06:11:09.197Z,3.53
2019-01-30T06:13:58.246Z,4.03
2019-01-30T06:16:47.286Z,3.70
2019-01-30T06:19:36.278Z,4.50
2019-01-30T06:22:25.369Z,3.60
2019-01-30T06:25:14.419Z,5.03
2019-01-30T06:28:03.406Z,6.70
2019-01-30T06:30:53.338Z,3.98
2019-01-30T06:33:35.054Z,3.47
2019-01-30T06:36:17.392Z,5.07
2019-01-30T06:38:58.790Z,5.10
2019-01-30T06:41:41.094Z,3.97
2019-01-30T06:44:23.496Z,5.13
2019-01-30T06:47:05.740Z,3.83
2019-01-30T06:49:48.057Z,9.03
2019-01-30T06:52:29.625Z,6.10
2019-01-30T06:55:11.949Z,6.57
2019-01-30T06:57:54.201Z,10.17
2019-01-30T07:00:35.739Z,3.87
2019-01-30T07:03:18.187Z,5.43
2019-01-30T07:06:00.387Z,3.23
2019-01-30T07:08:43.223Z,4.40
2019-01-30T07:11:25.328Z,5.40
2019-01-30T07:14:07.112Z,4.90
2019-01-30T07:16:48.626Z,4.00
2019-01-30T07:19:31.242Z,5.00
2019-01-30T07:22:13.501Z,5.13
2019-01-30T07:24:54.966Z,3.70
2019-01-30T07:27:36.655Z,4.97
2019-01-30T07:30:18.567Z,4.90
2019-01-30T07:32:48.510Z,10.20
2019-01-30T07:35:37.555Z,3.60
2019-01-30T07:38:26.566Z,5.73
2019-01-30T07:41:15.555Z,4.53
2019-01-30T07:44:25.905Z,4.85
2019-01-30T07:47:15.040Z,3.67
2019-01-30T07:50:24.858Z,7.70
2019-01-30T07:53:14.105Z,10.43
2019-01-30T07:56:03.227Z,6.80
2019-01-30T07:58:53.243Z,5.65
2019-01-30T08:01:42.309Z,3.73
2019-01-30T08:04:31.295Z,3.87
2019-01-30T08:07:20.317Z,5.47
2019-01-30T08:10:30.047Z,4.47
2019-01-30T08:13:19.083Z,5.57
2019-01-30T08:16:08.261Z,7.80
2019-01-30T08:18:57.211Z,8.20
2019-01-30T08:25:01.858Z,6.27
2019-01-30T08:28:11.501Z,7.30
2019-01-30T08:31:00.716Z,7.90
2019-01-30T08:33:51.497Z,8.23
2019-01-30T08:36:33.608Z,5.27
2019-01-30T08:39:15.070Z,8.73
2019-01-30T08:41:57.470Z,3.87
2019-01-30T08:44:46.845Z,6.37
2019-01-30T08:47:22.839Z,3.10
2019-01-30T08:50:05.268Z,3.33
2019-01-30T08:52:46.970Z,6.53
2019-01-30T08:55:29.057Z,8.47
2019-01-30T08:58:11.391Z,8.47
2019-01-30T09:00:53.217Z,7.77
2019-01-30T09:03:35.361Z,9.10
2019-01-30T09:06:17.773Z,3.63
2019-01-30T09:09:00.432Z,5.45
2019-01-30T09:11:42.633Z,6.13
2019-01-30T09:14:24.779Z,3.50
2019-01-30T09:17:08.685Z,8.37
2019-01-30T09:19:49.947Z,16.03
2019-01-30T09:22:32.027Z,12.60
2019-01-30T09:25:14.294Z,7.47
2019-01-30T09:27:56.086Z,17.97
2019-01-30T09:30:38.029Z,8.80
2019-01-30T09:33:25.982Z,7.00
2019-01-30T09:36:03.313Z,5.40
2019-01-30T09:38:45.833Z,9.53
2019-01-30T09:41:28.097Z,10.77
2019-01-30T09:44:09.891Z,7.00
2019-01-30T09:46:51.907Z,12.13
2019-01-30T09:49:34.375Z,12.73
2019-01-30T09:52:26.461Z,14.10
2019-01-30T09:55:00.345Z,11.13
2019-01-30T09:57:41.994Z,18.87
2019-01-30T10:00:24.314Z,16.03
2019-01-30T10:03:06.799Z,13.70
2019-01-30T10:05:48.285Z,14.00
2019-01-30T10:08:30.614Z,11.43
2019-01-30T10:11:12.417Z,10.93
2019-01-30T10:13:54.260Z,9.27
2019-01-30T10:16:36.191Z,9.67
2019-01-30T10:19:17.835Z,9.23
2019-01-30T10:22:00.527Z,9.03
2019-01-30T10:24:42.602Z,9.73
2019-01-30T10:27:24.975Z,11.50
2019-01-30T10:30:06.822Z,10.30
2019-01-30T10:32:48.775Z,14.40
2019-01-30T10:35:30.254Z,12.33
2019-01-30T10:38:11.997Z,9.73
2019-01-30T10:40:53.914Z,12.97
2019-01-30T10:43:35.729Z,17.80
2019-01-30T10:46:17.649Z,9.67
2019-01-30T10:48:59.569Z,10.90
2019-01-30T10:51:41.183Z,11.73
2019-01-30T10:54:23.543Z,11.47
2019-01-30T10:57:05.593Z,11.93
2019-01-30T10:59:47.098Z,9.53
2019-01-30T11:02:29.458Z,13.10
2019-01-30T11:05:11.754Z,5.77
2019-01-30T11:07:53.553Z,12.10
2019-01-30T11:10:35.978Z,12.47
2019-01-30T11:13:18.476Z,14.13
2019-01-30T11:16:01.288Z,9.73
2019-01-30T11:18:43.647Z,12.87
2019-01-30T11:21:25.147Z,10.70
2019-01-30T11:24:07.558Z,8.60
2019-01-30T11:26:49.946Z,15.07
2019-01-30T11:29:31.446Z,11.40
2019-01-30T11:32:12.986Z,6.73
2019-01-30T11:34:55.045Z,6.95
2019-01-30T11:37:37.497Z,5.30
2019-01-30T11:40:19.131Z,7.40
2019-01-30T11:43:01.211Z,9.90
2019-01-30T11:45:42.245Z,4.97
2019-01-30T11:48:31.414Z,5.00
2019-01-30T11:51:21.993Z,9.73
2019-01-30T11:54:12.614Z,6.67
2019-01-30T11:57:01.600Z,7.93
2019-01-30T12:00:32.366Z,7.83
2019-01-30T12:03:22.979Z,8.20
2019-01-30T12:06:13.556Z,4.40
2019-01-30T12:09:25.106Z,4.25
2019-01-30T12:12:15.724Z,6.43
2019-01-30T12:15:25.924Z,6.33
2019-01-30T12:18:16.582Z,6.27
2019-01-30T12:24:15.493Z,4.50
2019-01-30T12:27:06.066Z,9.13
2019-01-30T12:30:35.858Z,8.37
2019-01-30T12:33:26.521Z,8.63
2019-01-30T12:35:57.988Z,4.70
2019-01-30T12:38:27.674Z,4.57
2019-01-30T12:40:57.329Z,2.77
2019-01-30T12:43:27.102Z,3.00
2019-01-30T12:46:16.386Z,2.70
2019-01-30T12:49:24.855Z,1.83
2019-01-30T12:52:15.510Z,3.07
2019-01-30T12:55:24.013Z,3.27
2019-01-30T12:58:13.080Z,1.50
2019-01-30T13:01:02.111Z,1.70
2019-01-30T13:03:53.725Z,8.08
2019-01-30T13:06:44.490Z,2.73
2019-01-30T13:12:49.557Z,8.97
2019-01-30T13:15:40.161Z,5.77
2019-01-30T13:18:30.779Z,3.93
2019-01-30T13:21:19.804Z,7.57
2019-01-30T13:27:24.112Z,1.43
2019-01-30T13:30:35.396Z,2.10
2019-01-30T13:33:43.872Z,2.87
2019-01-30T13:36:13.518Z,2.30
2019-01-30T13:38:43.250Z,2.53
2019-01-30T13:41:32.530Z,4.33
2019-01-30T13:44:23.135Z,4.50
2019-01-30T13:47:13.701Z,1.47
2019-01-30T13:50:25.272Z,2.45
2019-01-30T13:53:15.854Z,2.83
2019-01-30T13:56:24.549Z,4.20
2019-01-30T13:59:15.195Z,1.53
2019-01-30T14:02:05.809Z,1.97
2019-01-30T14:04:37.475Z,4.77
2019-01-30T14:07:07.150Z,3.40
2019-01-30T14:09:37.380Z,1.92
2019-01-30T14:12:26.528Z,1.13
2019-01-30T14:15:37.869Z,1.53
2019-01-30T14:18:28.612Z,1.43
2019-01-30T14:21:19.209Z,2.47
2019-01-30T14:27:17.922Z,3.00
2019-01-30T14:30:29.405Z,0.60
2019-01-30T14:33:20.044Z,1.03
2019-01-30T14:36:04.226Z,1.97
2019-01-30T14:38:34.391Z,0.53
2019-01-30T14:41:04.252Z,1.13
2019-01-30T14:43:34.666Z,0.98
2019-01-30T14:46:04.798Z,2.17
2019-01-30T14:48:34.542Z,0.80
2019-01-30T14:51:23.625Z,1.50
2019-01-30T14:54:14.199Z,0.90
2019-01-30T14:57:04.874Z,3.77
2019-01-30T15:03:24.766Z,0.40
2019-01-30T15:06:15.678Z,1.57
2019-01-30T15:09:25.567Z,1.03
2019-01-30T15:12:16.204Z,0.60
2019-01-30T15:15:27.488Z,1.20
2019-01-30T15:21:24.565Z,0.67
2019-01-30T15:23:54.319Z,1.03
2019-01-30T15:26:24.321Z,1.30
2019-01-30T15:28:54.219Z,0.20
2019-01-30T15:31:23.898Z,0.33
2019-01-30T15:34:12.998Z,2.13
2019-01-30T15:36:56.302Z,0.70
2019-01-30T15:39:25.970Z,0.63
2019-01-30T15:41:55.605Z,3.00
2019-01-30T15:44:25.333Z,4.23
2019-01-30T15:46:55.011Z,1.60
2019-01-30T15:49:24.590Z,0.70
2019-01-30T15:51:54.382Z,3.40
2019-01-30T15:54:43.637Z,3.23
2019-01-30T16:01:05.567Z,4.77
2019-01-30T16:03:56.197Z,0.70
2019-01-30T16:06:46.877Z,0.80
2019-01-30T16:09:37.462Z,0.60
2019-01-30T16:16:02.735Z,2.23
2019-01-30T16:18:54.016Z,1.37
2019-01-30T16:21:44.928Z,3.90
2019-01-30T16:24:54.957Z,0.63
2019-01-30T16:30:59.969Z,1.75
2019-01-30T16:33:50.803Z,2.13
2019-01-30T16:36:20.383Z,0.83
2019-01-30T16:38:50.004Z,0.90
2019-01-30T16:41:21.375Z,5.63
2019-01-30T16:44:11.090Z,1.20
2019-01-30T16:47:01.919Z,0.87
2019-01-30T16:49:51.025Z,0.70
2019-01-30T16:52:41.802Z,0.40
2019-01-30T16:55:30.792Z,0.43
2019-01-30T16:58:21.399Z,4.00
2019-01-30T17:01:29.834Z,0.50
2019-01-30T17:04:20.453Z,2.63
2019-01-30T17:07:09.404Z,1.97
2019-01-30T17:10:18.310Z,0.30
2019-01-30T17:13:08.995Z,0.57
2019-01-30T17:19:06.018Z,2.80
2019-01-30T17:25:03.072Z,1.87
2019-01-30T17:27:52.026Z,3.77
2019-01-30T17:31:00.352Z,1.47
2019-01-30T17:36:58.099Z,0.60
2019-01-30T17:39:39.663Z,0.93
2019-01-30T17:42:21.983Z,0.87
2019-01-30T17:45:03.969Z,0.50
2019-01-30T17:47:47.439Z,0.70
2019-01-30T17:50:29.282Z,2.93
2019-01-30T17:53:11.308Z,4.63
2019-01-30T17:55:53.754Z,1.10
2019-01-30T17:58:23.570Z,0.87
2019-01-30T18:00:54.756Z,2.00
2019-01-30T18:03:24.520Z,1.60
2019-01-30T18:05:54.143Z,0.57
2019-01-30T18:08:23.735Z,1.87
2019-01-30T18:10:53.579Z,1.07
2019-01-30T18:13:23.474Z,1.20
2019-01-30T18:16:12.515Z,0.73
2019-01-30T18:19:03.094Z,1.33
2019-01-30T18:21:54.173Z,1.90
2019-01-30T18:27:59.105Z,2.50
2019-01-30T18:30:48.089Z,2.07
2019-01-30T18:33:37.047Z,0.70
2019-01-30T18:36:19.384Z,0.93
2019-01-30T18:38:49.037Z,1.33
2019-01-30T18:41:38.166Z,1.47
2019-01-30T18:44:28.990Z,4.80
2019-01-30T18:47:18.015Z,1.10
2019-01-30T18:50:27.080Z,1.10
2019-01-30T18:56:59.507Z,2.70
2019-01-30T18:59:56.896Z,1.97
2019-01-30T19:02:47.706Z,2.10
2019-01-30T19:05:56.198Z,3.50
2019-01-30T19:08:47.051Z,6.10
2019-01-30T19:14:51.873Z,5.13
2019-01-30T19:17:42.560Z,3.90
2019-01-30T19:20:16.903Z,1.03
2019-01-30T19:22:46.868Z,1.80
2019-01-30T19:25:16.997Z,6.67
2019-01-30T19:27:46.870Z,3.60
2019-01-30T19:30:25.338Z,2.70
2019-01-30T19:32:55.018Z,1.80
2019-01-30T19:35:24.665Z,0.87
2019-01-30T19:37:54.624Z,3.17
2019-01-30T19:40:24.270Z,0.90
2019-01-30T19:42:53.953Z,3.00
2019-01-30T19:45:43.059Z,0.60
2019-01-30T19:48:33.689Z,1.43
2019-01-30T19:51:24.348Z,1.83
2019-01-30T19:53:53.939Z,2.53
2019-01-30T19:56:24.220Z,3.80
2019-01-30T19:58:53.905Z,4.97
2019-01-30T20:01:23.770Z,1.07
2019-01-30T20:03:53.456Z,2.30
2019-01-30T20:06:23.191Z,1.63
2019-01-30T20:08:52.996Z,2.17
2019-01-30T20:11:22.747Z,1.57
2019-01-30T20:13:52.789Z,1.55
2019-01-30T20:16:22.419Z,1.27
2019-01-30T20:19:11.480Z,2.63
2019-01-30T20:22:20.119Z,2.60
2019-01-30T20:25:12.557Z,1.80
2019-01-30T20:27:42.179Z,5.57
2019-01-30T20:30:14.221Z,3.07
2019-01-30T20:32:43.929Z,4.30
2019-01-30T20:35:13.753Z,1.90
2019-01-30T20:37:55.565Z,0.80
2019-01-30T20:40:38.049Z,2.73
2019-01-30T20:43:20.627Z,4.50
2019-01-30T20:46:02.519Z,1.10
2019-01-30T20:48:49.569Z,1.50
2019-01-30T20:51:28.353Z,2.80
2019-01-30T20:54:10.103Z,4.27
2019-01-30T20:56:52.356Z,2.30
2019-01-30T20:59:34.694Z,2.03
2019-01-30T21:02:16.090Z,3.10
2019-01-30T21:04:58.372Z,3.37
2019-01-30T21:07:39.942Z,2.27
2019-01-30T21:10:22.193Z,2.27
2019-01-30T21:13:04.640Z,1.50
2019-01-30T21:15:47.288Z,2.45
2019-01-30T21:18:29.337Z,2.97
2019-01-30T21:21:11.041Z,2.57
2019-01-30T21:23:52.969Z,4.50
2019-01-30T21:26:35.199Z,1.20
2019-01-30T21:29:17.019Z,2.67
2019-01-30T21:31:59.653Z,1.47
2019-01-30T21:34:41.578Z,1.93
2019-01-30T21:37:23.326Z,3.87
2019-01-30T21:40:04.936Z,4.20
2019-01-30T21:42:47.226Z,3.57
2019-01-30T21:45:29.509Z,4.43
2019-01-30T21:48:11.393Z,6.37
2019-01-30T21:50:53.433Z,3.63
2019-01-30T21:53:35.563Z,2.97
2019-01-30T21:56:05.151Z,3.33
2019-01-30T21:58:54.539Z,2.43
2019-01-30T22:01:25.874Z,2.37
2019-01-30T22:03:55.501Z,2.27
2019-01-30T22:06:25.268Z,3.53
2019-01-30T22:09:14.389Z,2.40
2019-01-30T22:12:05.158Z,2.40
2019-01-30T22:14:55.757Z,2.03
2019-01-30T22:17:46.326Z,2.43
2019-01-30T22:20:36.944Z,5.27
2019-01-30T22:23:27.540Z,1.30
2019-01-30T22:26:16.585Z,3.37
2019-01-30T22:32:21.514Z,2.63
2019-01-30T22:35:10.622Z,6.37
2019-01-30T22:37:52.587Z,2.90
2019-01-30T22:40:34.156Z,2.80
2019-01-30T22:43:16.537Z,4.63
2019-01-30T22:45:58.647Z,2.70
2019-01-30T22:48:40.891Z,5.83
2019-01-30T22:51:22.527Z,3.17
2019-01-30T22:54:04.772Z,5.03
2019-01-30T22:56:47.406Z,1.37
2019-01-30T22:59:29.182Z,5.47
2019-01-30T23:02:11.672Z,3.83
2019-01-30T23:04:53.436Z,2.90
2019-01-30T23:07:37.329Z,5.13
2019-01-30T23:10:20.766Z,2.47
2019-01-30T23:13:04.237Z,1.50
2019-01-30T23:15:47.647Z,0.90
2019-01-30T23:18:30.689Z,3.60
2019-01-30T23:21:15.610Z,1.17
2019-01-30T23:24:19.173Z,2.87
2019-01-30T23:27:02.141Z,1.95
2019-01-30T23:29:44.879Z,3.40
2019-01-30T23:32:29.128Z,2.47
2019-01-30T23:35:13.843Z,4.93
2019-01-30T23:37:55.703Z,1.87
2019-01-30T23:40:38.945Z,1.87
2019-01-30T23:43:21.994Z,2.00
2019-01-30T23:46:04.353Z,2.15
2019-01-30T23:48:48.137Z,3.30
2019-01-30T23:51:30.133Z,2.23
2019-01-30T23:54:14.693Z,3.47
2019-01-30T23:56:57.526Z,5.37
2019-01-30T23:59:42.998Z,2.60
